sensor_id;sensor_type;location;lat;lon;timestamp;P1;durP1;ratioP1;P2;durP2;ratioP2
20880;SDS011;10600;53.096;8.802;2023-06-22T00:00:49;18.27;;;12.52;;
20880;SDS011;10600;53.096;8.802;2023-06-22T00:01:50;19.00;;;13.30;;
20880;SDS011;10600;53.096;8.802;2023-06-22T00:02:52;16.20;;;13.27;;
20880;SDS011;10600;53.096;8.802;2023-06-22T00:03:53;18.77;;;13.60;;
20880;SDS011;10600;53.096;8.802;2023-06-22T00:04:54;16.73;;;12.25;;
20880;SDS011;10600;53.096;8.802;2023-06-22T00:05:55;16.52;;;12.95;;
20880;SDS011;10600;53.096;8.802;2023-06-22T00:06:56;17.65;;;12.90;;
20880;SDS011;10600;53.096;8.802;2023-06-22T00:07:57;16.23;;;12.93;;
20880;SDS011;10600;53.096;8.802;2023-06-22T00:08:58;17.35;;;13.00;;
20880;SDS011;10600;53.096;8.802;2023-06-22T00:09:59;18.77;;;13.50;;
20880;SDS011;10600;53.096;8.802;2023-06-22T00:11:00;17.35;;;13.63;;
20880;SDS011;10600;53.096;8.802;2023-06-22T00:12:01;18.80;;;14.25;;
20880;SDS011;10600;53.096;8.802;2023-06-22T00:13:03;17.92;;;13.25;;
20880;SDS011;10600;53.096;8.802;2023-06-22T00:14:04;17.33;;;13.90;;
20880;SDS011;10600;53.096;8.802;2023-06-22T00:15:05;18.98;;;13.10;;
20880;SDS011;10600;53.096;8.802;2023-06-22T00:16:06;18.23;;;13.48;;
20880;SDS011;10600;53.096;8.802;2023-06-22T00:17:07;19.70;;;14.00;;
20880;SDS011;10600;53.096;8.802;2023-06-22T00:18:09;16.95;;;13.68;;
20880;SDS011;10600;53.096;8.802;2023-06-22T00:19:10;16.73;;;13.48;;
20880;SDS011;10600;53.096;8.802;2023-06-22T00:20:11;16.95;;;13.23;;
20880;SDS011;10600;53.096;8.802;2023-06-22T00:21:14;16.55;;;13.48;;
20880;SDS011;10600;53.096;8.802;2023-06-22T00:22:15;17.52;;;13.20;;
20880;SDS011;10600;53.096;8.802;2023-06-22T00:23:17;18.83;;;14.40;;
20880;SDS011;10600;53.096;8.802;2023-06-22T00:24:18;18.38;;;13.00;;
20880;SDS011;10600;53.096;8.802;2023-06-22T00:25:20;19.10;;;13.20;;
20880;SDS011;10600;53.096;8.802;2023-06-22T00:26:21;20.25;;;14.80;;
20880;SDS011;10600;53.096;8.802;2023-06-22T00:27:22;21.90;;;14.23;;
20880;SDS011;10600;53.096;8.802;2023-06-22T00:28:23;20.20;;;13.82;;
20880;SDS011;10600;53.096;8.802;2023-06-22T00:29:24;17.63;;;13.90;;
20880;SDS011;10600;53.096;8.802;2023-06-22T00:30:25;18.88;;;13.88;;
20880;SDS011;10600;53.096;8.802;2023-06-22T00:31:26;17.25;;;13.00;;
20880;SDS011;10600;53.096;8.802;2023-06-22T00:32:27;17.75;;;13.98;;
20880;SDS011;10600;53.096;8.802;2023-06-22T00:33:28;20.10;;;13.43;;
20880;SDS011;10600;53.096;8.802;2023-06-22T00:34:29;16.05;;;13.48;;
20880;SDS011;10600;53.096;8.802;2023-06-22T00:35:30;18.33;;;13.32;;
20880;SDS011;10600;53.096;8.802;2023-06-22T00:36:31;18.83;;;13.77;;
20880;SDS011;10600;53.096;8.802;2023-06-22T00:37:32;17.73;;;13.77;;
20880;SDS011;10600;53.096;8.802;2023-06-22T00:38:33;15.93;;;13.40;;
20880;SDS011;10600;53.096;8.802;2023-06-22T00:39:35;16.42;;;13.23;;
20880;SDS011;10600;53.096;8.802;2023-06-22T00:40:36;15.60;;;13.93;;
20880;SDS011;10600;53.096;8.802;2023-06-22T00:41:37;20.33;;;14.77;;
20880;SDS011;10600;53.096;8.802;2023-06-22T00:42:38;18.60;;;13.50;;
20880;SDS011;10600;53.096;8.802;2023-06-22T00:43:39;20.70;;;15.48;;
20880;SDS011;10600;53.096;8.802;2023-06-22T00:44:42;23.23;;;13.77;;
20880;SDS011;10600;53.096;8.802;2023-06-22T00:45:43;21.15;;;14.65;;
20880;SDS011;10600;53.096;8.802;2023-06-22T00:46:44;16.90;;;13.77;;
20880;SDS011;10600;53.096;8.802;2023-06-22T00:47:45;18.33;;;14.32;;
20880;SDS011;10600;53.096;8.802;2023-06-22T00:48:46;17.98;;;14.68;;
20880;SDS011;10600;53.096;8.802;2023-06-22T00:49:48;20.08;;;15.35;;
20880;SDS011;10600;53.096;8.802;2023-06-22T00:50:52;18.92;;;14.50;;
20880;SDS011;10600;53.096;8.802;2023-06-22T00:51:55;20.77;;;15.32;;
20880;SDS011;10600;53.096;8.802;2023-06-22T00:52:58;18.63;;;14.52;;
20880;SDS011;10600;53.096;8.802;2023-06-22T00:53:59;16.90;;;13.70;;
20880;SDS011;10600;53.096;8.802;2023-06-22T00:55:02;17.63;;;14.77;;
20880;SDS011;10600;53.096;8.802;2023-06-22T00:56:04;21.27;;;15.00;;
20880;SDS011;10600;53.096;8.802;2023-06-22T00:57:06;20.08;;;14.02;;
20880;SDS011;10600;53.096;8.802;2023-06-22T00:58:11;22.58;;;16.20;;
20880;SDS011;10600;53.096;8.802;2023-06-22T00:59:12;21.23;;;15.43;;
20880;SDS011;10600;53.096;8.802;2023-06-22T01:00:17;22.00;;;16.13;;
20880;SDS011;10600;53.096;8.802;2023-06-22T01:01:20;19.13;;;15.60;;
20880;SDS011;10600;53.096;8.802;2023-06-22T01:02:23;21.98;;;16.35;;
20880;SDS011;10600;53.096;8.802;2023-06-22T01:03:24;20.38;;;16.10;;
20880;SDS011;10600;53.096;8.802;2023-06-22T01:04:33;19.52;;;15.77;;
20880;SDS011;10600;53.096;8.802;2023-06-22T01:05:35;21.35;;;17.45;;
20880;SDS011;10600;53.096;8.802;2023-06-22T01:06:38;19.15;;;16.25;;
20880;SDS011;10600;53.096;8.802;2023-06-22T01:07:44;22.55;;;16.40;;
20880;SDS011;10600;53.096;8.802;2023-06-22T01:08:51;21.90;;;16.38;;
20880;SDS011;10600;53.096;8.802;2023-06-22T01:10:16;23.63;;;16.63;;
20880;SDS011;10600;53.096;8.802;2023-06-22T01:11:16;23.45;;;16.33;;
20880;SDS011;10600;53.096;8.802;2023-06-22T01:12:19;23.10;;;16.73;;
20880;SDS011;10600;53.096;8.802;2023-06-22T01:14:50;22.02;;;16.08;;
20880;SDS011;10600;53.096;8.802;2023-06-22T01:15:57;22.08;;;16.88;;
20880;SDS011;10600;53.096;8.802;2023-06-22T01:17:00;23.08;;;17.20;;
20880;SDS011;10600;53.096;8.802;2023-06-22T01:18:03;24.55;;;17.65;;
20880;SDS011;10600;53.096;8.802;2023-06-22T01:19:09;24.35;;;16.90;;
20880;SDS011;10600;53.096;8.802;2023-06-22T01:20:16;22.83;;;16.85;;
20880;SDS011;10600;53.096;8.802;2023-06-22T01:21:18;21.80;;;17.45;;
20880;SDS011;10600;53.096;8.802;2023-06-22T01:22:20;22.63;;;16.67;;
20880;SDS011;10600;53.096;8.802;2023-06-22T01:24:43;21.17;;;17.33;;
20880;SDS011;10600;53.096;8.802;2023-06-22T01:25:46;25.92;;;19.58;;
20880;SDS011;10600;53.096;8.802;2023-06-22T01:26:58;24.50;;;18.65;;
20880;SDS011;10600;53.096;8.802;2023-06-22T01:29:20;26.33;;;17.52;;
20880;SDS011;10600;53.096;8.802;2023-06-22T01:30:22;23.83;;;18.38;;
20880;SDS011;10600;53.096;8.802;2023-06-22T01:31:27;23.50;;;18.65;;
20880;SDS011;10600;53.096;8.802;2023-06-22T01:32:30;24.15;;;19.05;;
20880;SDS011;10600;53.096;8.802;2023-06-22T01:33:33;24.65;;;19.13;;
20880;SDS011;10600;53.096;8.802;2023-06-22T01:34:34;23.63;;;18.80;;
20880;SDS011;10600;53.096;8.802;2023-06-22T01:35:36;22.92;;;18.75;;
20880;SDS011;10600;53.096;8.802;2023-06-22T01:36:37;23.75;;;17.98;;
20880;SDS011;10600;53.096;8.802;2023-06-22T01:37:39;25.90;;;19.30;;
20880;SDS011;10600;53.096;8.802;2023-06-22T01:38:40;26.08;;;19.00;;
20880;SDS011;10600;53.096;8.802;2023-06-22T01:39:42;26.77;;;19.38;;
20880;SDS011;10600;53.096;8.802;2023-06-22T01:40:43;23.85;;;18.88;;
20880;SDS011;10600;53.096;8.802;2023-06-22T01:41:44;25.70;;;19.25;;
20880;SDS011;10600;53.096;8.802;2023-06-22T01:42:46;26.40;;;20.48;;
20880;SDS011;10600;53.096;8.802;2023-06-22T01:43:47;25.40;;;19.38;;
20880;SDS011;10600;53.096;8.802;2023-06-22T01:44:49;25.70;;;19.85;;
20880;SDS011;10600;53.096;8.802;2023-06-22T01:45:50;25.05;;;19.55;;
20880;SDS011;10600;53.096;8.802;2023-06-22T01:46:52;25.98;;;20.05;;
20880;SDS011;10600;53.096;8.802;2023-06-22T01:47:53;28.25;;;20.25;;
20880;SDS011;10600;53.096;8.802;2023-06-22T01:48:55;25.48;;;19.38;;
20880;SDS011;10600;53.096;8.802;2023-06-22T01:49:56;25.25;;;19.50;;
20880;SDS011;10600;53.096;8.802;2023-06-22T01:50:57;27.88;;;20.65;;
20880;SDS011;10600;53.096;8.802;2023-06-22T01:51:58;31.38;;;21.00;;
20880;SDS011;10600;53.096;8.802;2023-06-22T01:52:59;26.15;;;20.42;;
20880;SDS011;10600;53.096;8.802;2023-06-22T01:54:01;30.23;;;21.95;;
20880;SDS011;10600;53.096;8.802;2023-06-22T01:55:02;26.98;;;21.50;;
20880;SDS011;10600;53.096;8.802;2023-06-22T01:56:04;28.17;;;20.98;;
20880;SDS011;10600;53.096;8.802;2023-06-22T01:57:05;31.23;;;23.02;;
20880;SDS011;10600;53.096;8.802;2023-06-22T01:58:07;27.35;;;21.50;;
20880;SDS011;10600;53.096;8.802;2023-06-22T01:59:10;26.02;;;21.58;;
20880;SDS011;10600;53.096;8.802;2023-06-22T02:00:14;28.15;;;20.88;;
20880;SDS011;10600;53.096;8.802;2023-06-22T02:01:20;29.98;;;21.92;;
20880;SDS011;10600;53.096;8.802;2023-06-22T02:02:23;31.35;;;22.35;;
20880;SDS011;10600;53.096;8.802;2023-06-22T02:03:34;29.50;;;21.83;;
20880;SDS011;10600;53.096;8.802;2023-06-22T02:04:38;26.77;;;20.35;;
20880;SDS011;10600;53.096;8.802;2023-06-22T02:07:18;28.85;;;21.38;;
20880;SDS011;10600;53.096;8.802;2023-06-22T02:08:25;32.08;;;23.30;;
20880;SDS011;10600;53.096;8.802;2023-06-22T02:09:29;28.00;;;21.02;;
20880;SDS011;10600;53.096;8.802;2023-06-22T02:10:32;31.48;;;22.33;;
20880;SDS011;10600;53.096;8.802;2023-06-22T02:11:33;30.33;;;22.42;;
20880;SDS011;10600;53.096;8.802;2023-06-22T02:12:34;27.23;;;21.00;;
20880;SDS011;10600;53.096;8.802;2023-06-22T02:13:36;30.35;;;22.42;;
20880;SDS011;10600;53.096;8.802;2023-06-22T02:14:40;30.23;;;22.38;;
20880;SDS011;10600;53.096;8.802;2023-06-22T02:15:42;27.42;;;20.42;;
20880;SDS011;10600;53.096;8.802;2023-06-22T02:16:43;28.05;;;21.48;;
20880;SDS011;10600;53.096;8.802;2023-06-22T02:17:44;29.00;;;20.80;;
20880;SDS011;10600;53.096;8.802;2023-06-22T02:18:49;27.50;;;20.92;;
20880;SDS011;10600;53.096;8.802;2023-06-22T02:19:52;28.73;;;22.35;;
20880;SDS011;10600;53.096;8.802;2023-06-22T02:20:54;31.80;;;23.65;;
20880;SDS011;10600;53.096;8.802;2023-06-22T02:21:55;35.30;;;23.58;;
20880;SDS011;10600;53.096;8.802;2023-06-22T02:22:56;29.67;;;22.52;;
20880;SDS011;10600;53.096;8.802;2023-06-22T02:23:57;30.77;;;23.88;;
20880;SDS011;10600;53.096;8.802;2023-06-22T02:24:58;30.58;;;22.98;;
20880;SDS011;10600;53.096;8.802;2023-06-22T02:25:59;33.35;;;24.92;;
20880;SDS011;10600;53.096;8.802;2023-06-22T02:27:00;33.38;;;23.40;;
20880;SDS011;10600;53.096;8.802;2023-06-22T02:28:02;33.50;;;24.80;;
20880;SDS011;10600;53.096;8.802;2023-06-22T02:29:03;33.10;;;24.30;;
20880;SDS011;10600;53.096;8.802;2023-06-22T02:30:04;31.48;;;23.70;;
20880;SDS011;10600;53.096;8.802;2023-06-22T02:31:06;33.65;;;24.35;;
20880;SDS011;10600;53.096;8.802;2023-06-22T02:32:07;33.50;;;24.48;;
20880;SDS011;10600;53.096;8.802;2023-06-22T02:33:08;31.30;;;24.00;;
20880;SDS011;10600;53.096;8.802;2023-06-22T02:34:09;30.10;;;23.23;;
20880;SDS011;10600;53.096;8.802;2023-06-22T02:35:10;33.33;;;24.67;;
20880;SDS011;10600;53.096;8.802;2023-06-22T02:36:11;33.85;;;24.75;;
20880;SDS011;10600;53.096;8.802;2023-06-22T02:37:13;33.30;;;24.67;;
20880;SDS011;10600;53.096;8.802;2023-06-22T02:38:17;35.55;;;24.83;;
20880;SDS011;10600;53.096;8.802;2023-06-22T02:39:23;39.42;;;25.83;;
20880;SDS011;10600;53.096;8.802;2023-06-22T02:40:24;34.30;;;24.33;;
20880;SDS011;10600;53.096;8.802;2023-06-22T02:41:25;38.55;;;26.98;;
20880;SDS011;10600;53.096;8.802;2023-06-22T02:42:26;35.83;;;25.90;;
20880;SDS011;10600;53.096;8.802;2023-06-22T02:43:27;36.67;;;25.83;;
20880;SDS011;10600;53.096;8.802;2023-06-22T02:44:28;36.80;;;26.70;;
20880;SDS011;10600;53.096;8.802;2023-06-22T02:45:29;36.08;;;26.67;;
20880;SDS011;10600;53.096;8.802;2023-06-22T02:46:30;44.00;;;28.60;;
20880;SDS011;10600;53.096;8.802;2023-06-22T02:47:31;40.85;;;28.00;;
20880;SDS011;10600;53.096;8.802;2023-06-22T02:48:32;36.50;;;26.50;;
20880;SDS011;10600;53.096;8.802;2023-06-22T02:49:33;40.70;;;27.92;;
20880;SDS011;10600;53.096;8.802;2023-06-22T02:50:34;41.45;;;27.08;;
20880;SDS011;10600;53.096;8.802;2023-06-22T02:51:37;39.40;;;29.55;;
20880;SDS011;10600;53.096;8.802;2023-06-22T02:52:39;40.28;;;27.88;;
20880;SDS011;10600;53.096;8.802;2023-06-22T02:53:40;40.30;;;29.15;;
20880;SDS011;10600;53.096;8.802;2023-06-22T02:54:44;37.88;;;28.63;;
20880;SDS011;10600;53.096;8.802;2023-06-22T02:55:46;40.17;;;28.88;;
20880;SDS011;10600;53.096;8.802;2023-06-22T02:56:47;38.03;;;28.00;;
20880;SDS011;10600;53.096;8.802;2023-06-22T02:57:48;38.33;;;27.63;;
20880;SDS011;10600;53.096;8.802;2023-06-22T02:58:52;38.63;;;28.73;;
20880;SDS011;10600;53.096;8.802;2023-06-22T02:59:53;37.15;;;28.83;;
20880;SDS011;10600;53.096;8.802;2023-06-22T03:00:55;35.90;;;27.48;;
20880;SDS011;10600;53.096;8.802;2023-06-22T03:01:56;41.55;;;28.67;;
20880;SDS011;10600;53.096;8.802;2023-06-22T03:02:57;40.50;;;28.38;;
20880;SDS011;10600;53.096;8.802;2023-06-22T03:03:58;37.97;;;28.38;;
20880;SDS011;10600;53.096;8.802;2023-06-22T03:04:59;39.88;;;28.25;;
20880;SDS011;10600;53.096;8.802;2023-06-22T03:06:01;38.60;;;27.58;;
20880;SDS011;10600;53.096;8.802;2023-06-22T03:07:02;48.38;;;30.50;;
20880;SDS011;10600;53.096;8.802;2023-06-22T03:08:03;37.50;;;28.52;;
20880;SDS011;10600;53.096;8.802;2023-06-22T03:09:04;41.22;;;29.63;;
20880;SDS011;10600;53.096;8.802;2023-06-22T03:10:05;39.13;;;29.95;;
20880;SDS011;10600;53.096;8.802;2023-06-22T03:11:07;40.67;;;30.05;;
20880;SDS011;10600;53.096;8.802;2023-06-22T03:12:08;41.53;;;30.38;;
20880;SDS011;10600;53.096;8.802;2023-06-22T03:13:09;38.58;;;27.70;;
20880;SDS011;10600;53.096;8.802;2023-06-22T03:14:10;38.63;;;27.80;;
20880;SDS011;10600;53.096;8.802;2023-06-22T03:15:12;38.40;;;27.50;;
20880;SDS011;10600;53.096;8.802;2023-06-22T03:16:13;36.38;;;27.88;;
20880;SDS011;10600;53.096;8.802;2023-06-22T03:17:14;37.38;;;27.50;;
20880;SDS011;10600;53.096;8.802;2023-06-22T03:18:15;38.55;;;27.35;;
20880;SDS011;10600;53.096;8.802;2023-06-22T03:19:16;39.25;;;27.63;;
20880;SDS011;10600;53.096;8.802;2023-06-22T03:20:17;37.67;;;27.23;;
20880;SDS011;10600;53.096;8.802;2023-06-22T03:21:19;39.33;;;27.85;;
20880;SDS011;10600;53.096;8.802;2023-06-22T03:22:20;40.80;;;28.23;;
20880;SDS011;10600;53.096;8.802;2023-06-22T03:23:21;38.88;;;28.17;;
20880;SDS011;10600;53.096;8.802;2023-06-22T03:24:22;39.22;;;27.42;;
20880;SDS011;10600;53.096;8.802;2023-06-22T03:25:23;40.88;;;27.38;;
20880;SDS011;10600;53.096;8.802;2023-06-22T03:26:24;32.85;;;25.35;;
20880;SDS011;10600;53.096;8.802;2023-06-22T03:27:26;36.35;;;26.77;;
20880;SDS011;10600;53.096;8.802;2023-06-22T03:28:27;36.08;;;26.70;;
20880;SDS011;10600;53.096;8.802;2023-06-22T03:29:29;36.45;;;27.00;;
20880;SDS011;10600;53.096;8.802;2023-06-22T03:30:30;39.47;;;27.23;;
20880;SDS011;10600;53.096;8.802;2023-06-22T03:31:31;38.42;;;26.35;;
20880;SDS011;10600;53.096;8.802;2023-06-22T03:32:32;37.20;;;27.45;;
20880;SDS011;10600;53.096;8.802;2023-06-22T03:33:33;38.55;;;27.38;;
20880;SDS011;10600;53.096;8.802;2023-06-22T03:34:34;37.00;;;28.15;;
20880;SDS011;10600;53.096;8.802;2023-06-22T03:35:38;36.55;;;26.77;;
20880;SDS011;10600;53.096;8.802;2023-06-22T03:36:39;39.03;;;27.73;;
20880;SDS011;10600;53.096;8.802;2023-06-22T03:37:40;35.30;;;25.60;;
20880;SDS011;10600;53.096;8.802;2023-06-22T03:38:41;37.55;;;27.27;;
20880;SDS011;10600;53.096;8.802;2023-06-22T03:39:42;39.13;;;28.70;;
20880;SDS011;10600;53.096;8.802;2023-06-22T03:40:43;38.35;;;28.15;;
20880;SDS011;10600;53.096;8.802;2023-06-22T03:41:44;37.88;;;28.05;;
20880;SDS011;10600;53.096;8.802;2023-06-22T03:42:45;36.90;;;28.02;;
20880;SDS011;10600;53.096;8.802;2023-06-22T03:43:46;39.20;;;28.83;;
20880;SDS011;10600;53.096;8.802;2023-06-22T03:44:48;41.42;;;29.50;;
20880;SDS011;10600;53.096;8.802;2023-06-22T03:45:49;39.25;;;28.92;;
20880;SDS011;10600;53.096;8.802;2023-06-22T03:46:50;41.13;;;28.60;;
20880;SDS011;10600;53.096;8.802;2023-06-22T03:47:51;37.05;;;27.55;;
20880;SDS011;10600;53.096;8.802;2023-06-22T03:48:52;38.65;;;29.38;;
20880;SDS011;10600;53.096;8.802;2023-06-22T03:49:53;40.03;;;30.08;;
20880;SDS011;10600;53.096;8.802;2023-06-22T03:50:55;40.20;;;29.20;;
20880;SDS011;10600;53.096;8.802;2023-06-22T03:51:56;39.90;;;28.30;;
20880;SDS011;10600;53.096;8.802;2023-06-22T03:52:57;47.38;;;33.38;;
20880;SDS011;10600;53.096;8.802;2023-06-22T03:53:58;40.03;;;30.05;;
20880;SDS011;10600;53.096;8.802;2023-06-22T03:54:59;39.67;;;28.90;;
20880;SDS011;10600;53.096;8.802;2023-06-22T03:56:00;39.60;;;28.95;;
20880;SDS011;10600;53.096;8.802;2023-06-22T03:57:01;43.50;;;29.35;;
20880;SDS011;10600;53.096;8.802;2023-06-22T03:58:02;43.03;;;29.23;;
20880;SDS011;10600;53.096;8.802;2023-06-22T03:59:05;36.15;;;28.48;;
20880;SDS011;10600;53.096;8.802;2023-06-22T04:00:08;38.58;;;28.27;;
20880;SDS011;10600;53.096;8.802;2023-06-22T04:01:10;37.67;;;27.67;;
20880;SDS011;10600;53.096;8.802;2023-06-22T04:02:11;39.15;;;28.95;;
20880;SDS011;10600;53.096;8.802;2023-06-22T04:03:13;39.33;;;28.55;;
20880;SDS011;10600;53.096;8.802;2023-06-22T04:04:14;37.67;;;28.48;;
20880;SDS011;10600;53.096;8.802;2023-06-22T04:05:15;38.53;;;28.63;;
20880;SDS011;10600;53.096;8.802;2023-06-22T04:06:18;44.33;;;29.70;;
20880;SDS011;10600;53.096;8.802;2023-06-22T04:07:19;46.00;;;31.40;;
20880;SDS011;10600;53.096;8.802;2023-06-22T04:08:20;40.55;;;30.25;;
20880;SDS011;10600;53.096;8.802;2023-06-22T04:09:21;37.88;;;28.45;;
20880;SDS011;10600;53.096;8.802;2023-06-22T04:10:22;43.13;;;29.90;;
20880;SDS011;10600;53.096;8.802;2023-06-22T04:11:23;43.90;;;31.60;;
20880;SDS011;10600;53.096;8.802;2023-06-22T04:12:24;42.78;;;29.73;;
20880;SDS011;10600;53.096;8.802;2023-06-22T04:13:25;41.38;;;31.20;;
20880;SDS011;10600;53.096;8.802;2023-06-22T04:14:26;40.28;;;30.05;;
20880;SDS011;10600;53.096;8.802;2023-06-22T04:15:27;44.72;;;31.67;;
20880;SDS011;10600;53.096;8.802;2023-06-22T04:16:28;44.53;;;30.85;;
20880;SDS011;10600;53.096;8.802;2023-06-22T04:17:29;43.10;;;31.13;;
20880;SDS011;10600;53.096;8.802;2023-06-22T04:18:30;41.30;;;30.00;;
20880;SDS011;10600;53.096;8.802;2023-06-22T04:19:31;41.35;;;30.88;;
20880;SDS011;10600;53.096;8.802;2023-06-22T04:20:32;42.10;;;29.25;;
20880;SDS011;10600;53.096;8.802;2023-06-22T04:21:33;39.20;;;29.67;;
20880;SDS011;10600;53.096;8.802;2023-06-22T04:22:34;41.95;;;30.00;;
20880;SDS011;10600;53.096;8.802;2023-06-22T04:23:35;41.03;;;30.33;;
20880;SDS011;10600;53.096;8.802;2023-06-22T04:24:36;42.53;;;30.63;;
20880;SDS011;10600;53.096;8.802;2023-06-22T04:25:37;40.83;;;30.00;;
20880;SDS011;10600;53.096;8.802;2023-06-22T04:26:38;47.05;;;33.40;;
20880;SDS011;10600;53.096;8.802;2023-06-22T04:27:41;44.35;;;32.50;;
20880;SDS011;10600;53.096;8.802;2023-06-22T04:28:42;41.90;;;30.85;;
20880;SDS011;10600;53.096;8.802;2023-06-22T04:29:50;45.03;;;32.80;;
20880;SDS011;10600;53.096;8.802;2023-06-22T04:30:51;47.17;;;31.73;;
20880;SDS011;10600;53.096;8.802;2023-06-22T04:31:52;43.35;;;30.77;;
20880;SDS011;10600;53.096;8.802;2023-06-22T04:32:56;44.85;;;32.75;;
20880;SDS011;10600;53.096;8.802;2023-06-22T04:33:57;43.50;;;31.80;;
20880;SDS011;10600;53.096;8.802;2023-06-22T04:35:05;43.45;;;31.70;;
20880;SDS011;10600;53.096;8.802;2023-06-22T04:36:06;44.40;;;31.77;;
20880;SDS011;10600;53.096;8.802;2023-06-22T04:37:07;44.22;;;32.92;;
20880;SDS011;10600;53.096;8.802;2023-06-22T04:38:08;46.20;;;33.22;;
20880;SDS011;10600;53.096;8.802;2023-06-22T04:39:11;43.28;;;31.52;;
20880;SDS011;10600;53.096;8.802;2023-06-22T04:40:12;44.22;;;32.63;;
20880;SDS011;10600;53.096;8.802;2023-06-22T04:41:14;43.20;;;30.95;;
20880;SDS011;10600;53.096;8.802;2023-06-22T04:42:25;45.30;;;32.33;;
20880;SDS011;10600;53.096;8.802;2023-06-22T04:43:26;40.03;;;30.42;;
20880;SDS011;10600;53.096;8.802;2023-06-22T04:44:30;43.13;;;30.40;;
20880;SDS011;10600;53.096;8.802;2023-06-22T04:45:31;44.40;;;31.67;;
20880;SDS011;10600;53.096;8.802;2023-06-22T04:46:32;41.67;;;30.73;;
20880;SDS011;10600;53.096;8.802;2023-06-22T04:47:38;46.00;;;32.05;;
20880;SDS011;10600;53.096;8.802;2023-06-22T04:48:39;40.75;;;30.17;;
20880;SDS011;10600;53.096;8.802;2023-06-22T04:49:40;39.70;;;29.77;;
20880;SDS011;10600;53.096;8.802;2023-06-22T04:50:43;42.15;;;30.88;;
20880;SDS011;10600;53.096;8.802;2023-06-22T04:51:44;44.33;;;32.30;;
20880;SDS011;10600;53.096;8.802;2023-06-22T04:52:45;46.17;;;31.65;;
20880;SDS011;10600;53.096;8.802;2023-06-22T04:53:46;43.83;;;32.00;;
20880;SDS011;10600;53.096;8.802;2023-06-22T04:54:47;41.85;;;30.80;;
20880;SDS011;10600;53.096;8.802;2023-06-22T04:55:55;43.03;;;30.90;;
20880;SDS011;10600;53.096;8.802;2023-06-22T04:56:56;44.53;;;31.25;;
20880;SDS011;10600;53.096;8.802;2023-06-22T04:57:57;43.70;;;31.45;;
20880;SDS011;10600;53.096;8.802;2023-06-22T04:59:04;44.47;;;31.08;;
20880;SDS011;10600;53.096;8.802;2023-06-22T05:00:05;43.65;;;30.25;;
20880;SDS011;10600;53.096;8.802;2023-06-22T05:01:12;43.03;;;31.30;;
20880;SDS011;10600;53.096;8.802;2023-06-22T05:02:13;42.53;;;30.67;;
20880;SDS011;10600;53.096;8.802;2023-06-22T05:03:15;44.20;;;32.25;;
20880;SDS011;10600;53.096;8.802;2023-06-22T05:04:18;47.80;;;33.35;;
20880;SDS011;10600;53.096;8.802;2023-06-22T05:05:19;47.78;;;32.85;;
20880;SDS011;10600;53.096;8.802;2023-06-22T05:06:21;41.65;;;29.63;;
20880;SDS011;10600;53.096;8.802;2023-06-22T05:07:24;44.30;;;30.58;;
20880;SDS011;10600;53.096;8.802;2023-06-22T05:08:25;42.05;;;30.92;;
20880;SDS011;10600;53.096;8.802;2023-06-22T05:09:28;41.22;;;30.75;;
20880;SDS011;10600;53.096;8.802;2023-06-22T05:10:29;42.67;;;30.90;;
20880;SDS011;10600;53.096;8.802;2023-06-22T05:11:30;43.85;;;31.05;;
20880;SDS011;10600;53.096;8.802;2023-06-22T05:12:31;42.63;;;30.00;;
20880;SDS011;10600;53.096;8.802;2023-06-22T05:13:33;42.60;;;31.05;;
20880;SDS011;10600;53.096;8.802;2023-06-22T05:14:34;43.10;;;31.23;;
20880;SDS011;10600;53.096;8.802;2023-06-22T05:15:35;42.35;;;29.77;;
20880;SDS011;10600;53.096;8.802;2023-06-22T05:16:41;43.00;;;30.98;;
20880;SDS011;10600;53.096;8.802;2023-06-22T05:17:42;43.70;;;31.05;;
20880;SDS011;10600;53.096;8.802;2023-06-22T05:18:45;45.20;;;31.75;;
20880;SDS011;10600;53.096;8.802;2023-06-22T05:19:46;40.58;;;29.25;;
20880;SDS011;10600;53.096;8.802;2023-06-22T05:20:49;44.17;;;29.83;;
20880;SDS011;10600;53.096;8.802;2023-06-22T05:21:51;42.58;;;30.17;;
20880;SDS011;10600;53.096;8.802;2023-06-22T05:22:52;44.65;;;30.55;;
20880;SDS011;10600;53.096;8.802;2023-06-22T05:23:53;41.75;;;30.23;;
20880;SDS011;10600;53.096;8.802;2023-06-22T05:24:54;41.05;;;30.60;;
20880;SDS011;10600;53.096;8.802;2023-06-22T05:25:55;39.33;;;28.48;;
20880;SDS011;10600;53.096;8.802;2023-06-22T05:26:57;42.55;;;29.90;;
20880;SDS011;10600;53.096;8.802;2023-06-22T05:27:58;41.88;;;30.75;;
20880;SDS011;10600;53.096;8.802;2023-06-22T05:29:00;45.05;;;30.27;;
20880;SDS011;10600;53.096;8.802;2023-06-22T05:30:01;41.80;;;28.90;;
20880;SDS011;10600;53.096;8.802;2023-06-22T05:31:02;39.65;;;28.80;;
20880;SDS011;10600;53.096;8.802;2023-06-22T05:32:04;39.15;;;28.23;;
20880;SDS011;10600;53.096;8.802;2023-06-22T05:33:05;39.65;;;28.58;;
20880;SDS011;10600;53.096;8.802;2023-06-22T05:34:06;42.88;;;29.48;;
20880;SDS011;10600;53.096;8.802;2023-06-22T05:35:07;41.67;;;28.95;;
20880;SDS011;10600;53.096;8.802;2023-06-22T05:36:08;40.83;;;29.33;;
20880;SDS011;10600;53.096;8.802;2023-06-22T05:37:10;41.83;;;30.10;;
20880;SDS011;10600;53.096;8.802;2023-06-22T05:38:13;37.83;;;27.02;;
20880;SDS011;10600;53.096;8.802;2023-06-22T05:39:14;44.15;;;29.95;;
20880;SDS011;10600;53.096;8.802;2023-06-22T05:40:16;39.90;;;28.63;;
20880;SDS011;10600;53.096;8.802;2023-06-22T05:41:17;40.60;;;28.77;;
20880;SDS011;10600;53.096;8.802;2023-06-22T05:42:18;40.20;;;28.65;;
20880;SDS011;10600;53.096;8.802;2023-06-22T05:43:19;37.15;;;27.00;;
20880;SDS011;10600;53.096;8.802;2023-06-22T05:44:20;37.97;;;25.83;;
20880;SDS011;10600;53.096;8.802;2023-06-22T05:45:21;37.65;;;26.23;;
20880;SDS011;10600;53.096;8.802;2023-06-22T05:46:22;34.38;;;24.92;;
20880;SDS011;10600;53.096;8.802;2023-06-22T05:47:23;31.67;;;24.85;;
20880;SDS011;10600;53.096;8.802;2023-06-22T05:48:24;36.00;;;25.33;;
20880;SDS011;10600;53.096;8.802;2023-06-22T05:49:25;33.75;;;24.98;;
20880;SDS011;10600;53.096;8.802;2023-06-22T05:50:32;33.10;;;25.90;;
20880;SDS011;10600;53.096;8.802;2023-06-22T05:51:33;35.05;;;24.98;;
20880;SDS011;10600;53.096;8.802;2023-06-22T05:52:34;35.17;;;25.73;;
20880;SDS011;10600;53.096;8.802;2023-06-22T05:53:35;35.25;;;24.35;;
20880;SDS011;10600;53.096;8.802;2023-06-22T05:54:36;34.70;;;23.55;;
20880;SDS011;10600;53.096;8.802;2023-06-22T05:55:39;32.70;;;23.13;;
20880;SDS011;10600;53.096;8.802;2023-06-22T05:56:40;36.00;;;24.52;;
20880;SDS011;10600;53.096;8.802;2023-06-22T05:57:41;34.20;;;23.73;;
20880;SDS011;10600;53.096;8.802;2023-06-22T05:58:42;31.77;;;23.30;;
20880;SDS011;10600;53.096;8.802;2023-06-22T05:59:43;30.13;;;23.08;;
20880;SDS011;10600;53.096;8.802;2023-06-22T06:00:44;30.08;;;22.42;;
20880;SDS011;10600;53.096;8.802;2023-06-22T06:01:46;30.85;;;23.05;;
20880;SDS011;10600;53.096;8.802;2023-06-22T06:02:50;30.27;;;22.70;;
20880;SDS011;10600;53.096;8.802;2023-06-22T06:03:51;31.55;;;22.75;;
20880;SDS011;10600;53.096;8.802;2023-06-22T06:04:52;29.60;;;23.17;;
20880;SDS011;10600;53.096;8.802;2023-06-22T06:05:54;29.65;;;21.65;;
20880;SDS011;10600;53.096;8.802;2023-06-22T06:06:55;28.75;;;21.90;;
20880;SDS011;10600;53.096;8.802;2023-06-22T06:07:56;29.92;;;21.60;;